Tina-c — 2APY2 — position and weather

sailwx.info

Track history (hours):
 
Tides and Currents Weather Stations Pressure Air Temp Water Temp Dewpoint Dewpoint Depression Visibility Wind Speed Wind Dir Waves Ship Positions

Tina-c

Last reported at 2015-Jan-27 19:33 UTC. Time now 2015-Jan-27 21:03 UTC.
Position N 50°57' E 001°14'.

Length 99 m; draft 6.6 m.

Type: Cargo ship. MMSI: 235061987.

Date/timePositionNaut miles runAvg speedWind from/ knotsBaromVisibWave heightAir tempDewpointWater temp
2015-Jan-27 19:33N 50°57' E 001°14'9 9.2
2015-Jan-27 18:34N 51°03' E 001°25'8 8.4
2015-Jan-27 17:34N 51°08' E 001°36'9 8.5
2015-Jan-27 16:34N 51°14' E 001°46'1010.1
2015-Jan-27 15:33N 51°22' E 001°55'8 8.2
2015-Jan-27 14:33N 51°22' E 002°09'1010.3
2015-Jan-27 13:34N 51°22' E 002°25'1111.0
2015-Jan-27 12:34N 51°22' E 002°43'1010.1
2015-Jan-27 11:33N 51°24' E 002°59'1211.7
2015-Jan-27 10:33N 51°25' E 003°17'1212.3
2015-Jan-27 09:34N 51°26' E 003°37'10 9.9
2015-Jan-27 08:33N 51°20' E 003°49'4 3.7
2015-Jan-27 07:33N 51°16' E 003°50'4 3.6
2015-Jan-27 06:33N 51°13' E 003°48'6 6.0
2015-Jan-27 05:33N 51°07' E 003°45'1 0.9
2015-Jan-27 04:28N 51°06' E 003°44'0 0.0
2015-Jan-27 03:31N 51°06' E 003°44'0 0.0
2015-Jan-27 02:31N 51°06' E 003°44'0 0.0
2015-Jan-27 01:31N 51°06' E 003°44'0 0.0
2015-Jan-27 00:31N 51°06' E 003°44'0 0.0
2015-Jan-26 23:31N 51°06' E 003°44'0 0.0
2015-Jan-26 22:31N 51°06' E 003°44'0 0.0
2015-Jan-26 21:31N 51°06' E 003°44'0 0.0
2015-Jan-26 20:25N 51°06' E 003°44'0 0.0
2015-Jan-26 19:31N 51°06' E 003°44'0 0.0
2015-Jan-26 18:31N 51°06' E 003°44'0 0.0
2015-Jan-26 17:31N 51°06' E 003°44'0 0.0
2015-Jan-26 16:31N 51°06' E 003°44'0 0.0
2015-Jan-26 15:31N 51°06' E 003°44'0 0.0
2015-Jan-26 14:28N 51°06' E 003°44'0 0.0
2015-Jan-26 13:31N 51°06' E 003°44'0 0.0
2015-Jan-26 12:31N 51°06' E 003°44'0 0.0
2015-Jan-26 11:31N 51°06' E 003°44'0 0.0
2015-Jan-26 10:31N 51°06' E 003°44'0 0.0
2015-Jan-26 09:31N 51°06' E 003°44'0 0.0
2015-Jan-26 08:31N 51°06' E 003°44'0 0.0
2015-Jan-26 07:31N 51°06' E 003°44'0 0.0
2015-Jan-26 06:31N 51°06' E 003°44'0 0.0
2015-Jan-26 05:31N 51°06' E 003°44'0 0.0
2015-Jan-26 04:31N 51°06' E 003°44'0 0.0
2015-Jan-26 03:31N 51°06' E 003°44'0 0.0
2015-Jan-26 02:31N 51°06' E 003°44'0 0.0
2015-Jan-26 01:31N 51°06' E 003°44'0 0.0
2015-Jan-26 00:31N 51°06' E 003°44'0 0.0
2015-Jan-25 23:28N 51°06' E 003°44'0 0.0
2015-Jan-25 22:31N 51°06' E 003°44'0 0.0
2015-Jan-25 21:28N 51°06' E 003°44'0 0.0
2015-Jan-25 20:31N 51°06' E 003°44'0 0.0
2015-Jan-25 19:31N 51°06' E 003°44'0 0.0
2015-Jan-25 18:31N 51°06' E 003°44'0 0.0
2015-Jan-25 17:31N 51°06' E 003°44'0 0.0
2015-Jan-25 16:31N 51°06' E 003°44'0 0.0
2015-Jan-25 15:31N 51°06' E 003°44'0 0.0
2015-Jan-25 14:31N 51°06' E 003°44'0 0.0
2015-Jan-25 13:31N 51°06' E 003°44'0 0.0
2015-Jan-25 12:31N 51°06' E 003°44'0 0.0
2015-Jan-25 11:31N 51°06' E 003°44'0 0.0
2015-Jan-25 10:31N 51°06' E 003°44'0 0.0
2015-Jan-25 09:31N 51°06' E 003°44'0 0.0
2015-Jan-25 08:31N 51°06' E 003°44'0 0.0
2015-Jan-25 07:31N 51°06' E 003°44'0 0.0
2015-Jan-25 06:31N 51°06' E 003°44'0 0.0
2015-Jan-25 05:31N 51°06' E 003°44'0 0.0
2015-Jan-25 04:31N 51°06' E 003°44'0 0.0
2015-Jan-25 03:31N 51°06' E 003°44'0 0.0
2015-Jan-25 02:31N 51°06' E 003°44'0 0.0
2015-Jan-25 01:31N 51°06' E 003°44'0 0.0
2015-Jan-25 00:31N 51°06' E 003°44'0 0.0
2015-Jan-24 23:31N 51°06' E 003°44'0 0.0
2015-Jan-24 22:31N 51°06' E 003°44'0 0.0
2015-Jan-24 21:31N 51°06' E 003°44'0 0.0
2015-Jan-24 20:31N 51°06' E 003°44'0 0.0
2015-Jan-24 19:31N 51°06' E 003°44'0 0.0
2015-Jan-24 18:31N 51°06' E 003°44'0 0.0
2015-Jan-24 17:31N 51°06' E 003°44'0 0.0
2015-Jan-24 16:31N 51°06' E 003°44'0 0.0
2015-Jan-24 15:31N 51°06' E 003°44'0 0.0
2015-Jan-24 14:28N 51°06' E 003°44'0 0.0
2015-Jan-24 13:31N 51°06' E 003°44'0 0.0
2015-Jan-24 12:31N 51°06' E 003°44'0 0.0
2015-Jan-24 11:31N 51°06' E 003°44'0 0.0
2015-Jan-24 10:31N 51°06' E 003°44'0 0.2
2015-Jan-24 09:33N 51°06' E 003°45'8 8.1
2015-Jan-24 08:33N 51°14' E 003°49'6 5.6
2015-Jan-24 07:34N 51°20' E 003°49'1 1.1
2015-Jan-24 06:33N 51°21' E 003°48'7 7.1
2015-Jan-24 05:33N 51°26' E 003°41'7 7.1
2015-Jan-24 04:33N 51°25' E 003°29'9 8.5
2015-Jan-24 03:26N 51°25' E 003°14'1113.1
2015-Jan-24 02:34N 51°23' E 002°56'1212.2
2015-Jan-24 01:33N 51°22' E 002°37'3 2.9
2015-Jan-24 00:31N 51°20' E 002°33'0 0.2
2015-Jan-23 23:31N 51°20' E 002°32'0 0.0
2015-Jan-23 22:31N 51°20' E 002°32'0 0.1
2015-Jan-23 21:25N 51°20' E 002°32'0 0.1
2015-Jan-23 20:31N 51°20' E 002°33'0 0.1
2015-Jan-23 19:31N 51°20' E 002°33'0 0.0
2015-Jan-23 18:31N 51°20' E 002°33'0 0.0
2015-Jan-23 17:28N 51°20' E 002°33'0 0.0
2015-Jan-23 16:31N 51°20' E 002°33'0 0.0
2015-Jan-23 15:31N 51°20' E 002°33'0 0.0
2015-Jan-23 14:31N 51°20' E 002°33'0 0.0
2015-Jan-23 13:31N 51°20' E 002°33'0 0.1
2015-Jan-23 12:31N 51°20' E 002°33'0 0.1
2015-Jan-23 11:31N 51°20' E 002°32'0 0.0
2015-Jan-23 10:31N 51°20' E 002°32'0 0.1
2015-Jan-23 09:31N 51°20' E 002°32'0 0.0
2015-Jan-23 08:31N 51°20' E 002°32'0 0.0
2015-Jan-23 07:31N 51°20' E 002°32'0 0.0
2015-Jan-23 06:31N 51°20' E 002°32'0 0.1
2015-Jan-23 05:28N 51°20' E 002°33'0 0.0
2015-Jan-23 04:31N 51°20' E 002°33'0 0.0
2015-Jan-23 03:25N 51°20' E 002°33'0 0.0
2015-Jan-23 02:31N 51°20' E 002°33'0 0.0
2015-Jan-23 01:31N 51°20' E 002°33'0 0.2
2015-Jan-23 00:31N 51°20' E 002°32'0 0.0
2015-Jan-22 23:31N 51°20' E 002°32'0 0.0
2015-Jan-22 22:28N 51°20' E 002°32'0 0.0
2015-Jan-22 21:28N 51°20' E 002°32'0 0.0
2015-Jan-22 20:31N 51°20' E 002°32'0 0.0
2015-Jan-22 19:33N 51°20' E 002°32'0 0.0
2015-Jan-22 18:33N 51°20' E 002°32'0 0.0
2015-Jan-22 17:33N 51°20' E 002°32'0 0.2
2015-Jan-22 16:33N 51°20' E 002°33'0 0.0
2015-Jan-22 15:32N 51°20' E 002°33'0 0.0
2015-Jan-22 14:32N 51°20' E 002°33'0 0.0
2015-Jan-22 13:33N 51°20' E 002°33'0 0.0
2015-Jan-22 12:33N 51°20' E 002°33'0 0.2
2015-Jan-22 11:33N 51°20' E 002°32'0 0.0
2015-Jan-22 10:33N 51°20' E 002°32'0 0.0
2015-Jan-22 09:33N 51°20' E 002°32'0 0.0
2015-Jan-22 08:33N 51°20' E 002°32'0 0.1
2015-Jan-22 07:30N 51°20' E 002°32'0 0.1
2015-Jan-22 06:29N 51°20' E 002°32'0 0.0
2015-Jan-22 05:32N 51°20' E 002°32'0 0.1
2015-Jan-22 04:24N 51°20' E 002°33'0 0.0
2015-Jan-22 03:32N 51°20' E 002°33'0 0.0
2015-Jan-22 02:29N 51°20' E 002°33'0 0.0
2015-Jan-22 01:33N 51°20' E 002°33'0 0.0
2015-Jan-22 00:32N 51°20' E 002°33'0 0.2
2015-Jan-21 23:28N 51°20' E 002°32'0 0.0
2015-Jan-21 22:50N 51°20' E 002°32'0 0.1
2015-Jan-21 22:46N 51°20' E 002°32'0 0.0
2015-Jan-21 22:33N 51°20' E 002°32'0 0.0
2015-Jan-21 21:32N 51°20' E 002°32'0 0.0
2015-Jan-21 20:33N 51°20' E 002°32'0 0.0
2015-Jan-21 19:33N 51°20' E 002°32'0 0.0
2015-Jan-21 18:25N 51°20' E 002°32'0 0.0
2015-Jan-21 17:31N 51°20' E 002°32'0 0.0
2015-Jan-21 16:33N 51°20' E 002°32'0 0.1
2015-Jan-21 15:33N 51°20' E 002°33'0 0.0
2015-Jan-21 14:33N 51°20' E 002°33'0 0.0
2015-Jan-21 13:33N 51°20' E 002°33'0 0.0
2015-Jan-21 12:33N 51°20' E 002°33'0 0.1
2015-Jan-21 11:33N 51°20' E 002°33'0 0.1
2015-Jan-21 10:32N 51°20' E 002°32'0 0.1
2015-Jan-21 09:33N 51°20' E 002°32'0 0.0
2015-Jan-21 08:27N 51°20' E 002°32'0 0.0
2015-Jan-21 07:32N 51°20' E 002°32'0 0.1
2015-Jan-21 06:26N 51°20' E 002°32'0 0.0
2015-Jan-21 05:32N 51°20' E 002°32'0 0.1
2015-Jan-21 04:33N 51°20' E 002°32'0 0.0
2015-Jan-21 03:33N 51°20' E 002°33'0 0.0
2015-Jan-21 02:30N 51°20' E 002°33'0 0.0
2015-Jan-21 01:31N 51°20' E 002°33'0 0.0
2015-Jan-21 00:33N 51°20' E 002°33'0 0.0
2015-Jan-20 23:32N 51°20' E 002°33'0 0.0
2015-Jan-20 22:33N 51°20' E 002°33'0 0.2
2015-Jan-20 21:31N 51°20' E 002°32'0 0.0
2015-Jan-20 20:32N 51°20' E 002°32'0 0.0
2015-Jan-20 19:32N 51°20' E 002°32'0 0.1
2015-Jan-20 18:31N 51°20' E 002°32'0 0.1
2015-Jan-20 17:27N 51°20' E 002°32'2 2.6
2015-Jan-20 16:33N 51°22' E 002°31'1110.3
2015-Jan-20 15:27N 51°17' E 002°15'9 9.8
2015-Jan-20 14:33N 51°13' E 002°03'1110.6
2015-Jan-20 13:33N 51°07' E 001°48'188 8.9
2015-Jan-19 16:30N 50°13' W 002°55'9 9.0
2015-Jan-19 15:32N 50°11' W 003°08'97 6.9
2015-Jan-19 01:30N 50°32' W 005°37'1011.0
2015-Jan-19 00:33N 50°39' W 005°24'9012.8
2015-Jan-18 17:33N 51°21' W 003°18'1111.2
2015-Jan-18 16:33N 51°28' W 003°04'6 5.6
2015-Jan-18 15:26N 51°33' W 002°59'0 0.1
2015-Jan-18 14:32N 51°33' W 002°59'0 0.0
2015-Jan-18 13:32N 51°33' W 002°59'0 0.0
2015-Jan-18 12:32N 51°33' W 002°59'0 0.0
2015-Jan-18 11:32N 51°33' W 002°59'0 0.0
2015-Jan-18 10:32N 51°33' W 002°59'0 0.0
2015-Jan-18 09:32N 51°33' W 002°59'0 0.0
2015-Jan-18 08:32N 51°33' W 002°59'0 0.0
2015-Jan-18 07:32N 51°33' W 002°59'0 0.0
2015-Jan-18 06:32N 51°33' W 002°59'0 0.0
2015-Jan-18 05:32N 51°33' W 002°59'0 0.0
2015-Jan-18 04:32N 51°33' W 002°59'0 0.0
2015-Jan-18 03:32N 51°33' W 002°59'0 0.0
2015-Jan-18 02:26N 51°33' W 002°59'0 0.0
2015-Jan-18 01:32N 51°33' W 002°59'0 0.0
2015-Jan-18 00:32N 51°33' W 002°59'0 0.0
2015-Jan-17 23:32N 51°33' W 002°59'0 0.0
2015-Jan-17 22:32N 51°33' W 002°59'0 0.0
2015-Jan-17 21:32N 51°33' W 002°59'0 0.0
2015-Jan-17 20:32N 51°33' W 002°59'  
Track history (hours):
 
Tides and Currents Weather Stations Pressure Air Temp Water Temp Dewpoint Dewpoint Depression Visibility Wind Speed Wind Dir Waves Ship Positions

Tina-c

Last reported at 2015-Jan-27 19:33 UTC. Time now 2015-Jan-27 21:03 UTC.
Position N 50°57' E 001°14'.

Length 99 m; draft 6.6 m.

Type: Cargo ship. MMSI: 235061987.

Date/timePositionNaut miles runAvg speedWind from/ knotsBaromVisibWave heightAir tempDewpointWater temp
2015-Jan-27 19:33N 50°57' E 001°14'9 9.2
2015-Jan-27 18:34N 51°03' E 001°25'8 8.4
2015-Jan-27 17:34N 51°08' E 001°36'9 8.5
2015-Jan-27 16:34N 51°14' E 001°46'1010.1
2015-Jan-27 15:33N 51°22' E 001°55'8 8.2
2015-Jan-27 14:33N 51°22' E 002°09'1010.3
2015-Jan-27 13:34N 51°22' E 002°25'1111.0
2015-Jan-27 12:34N 51°22' E 002°43'1010.1
2015-Jan-27 11:33N 51°24' E 002°59'1211.7
2015-Jan-27 10:33N 51°25' E 003°17'1212.3
2015-Jan-27 09:34N 51°26' E 003°37'10 9.9
2015-Jan-27 08:33N 51°20' E 003°49'4 3.7
2015-Jan-27 07:33N 51°16' E 003°50'4 3.6
2015-Jan-27 06:33N 51°13' E 003°48'6 6.0
2015-Jan-27 05:33N 51°07' E 003°45'1 0.9
2015-Jan-27 04:28N 51°06' E 003°44'0 0.0
2015-Jan-27 03:31N 51°06' E 003°44'0 0.0
2015-Jan-27 02:31N 51°06' E 003°44'0 0.0
2015-Jan-27 01:31N 51°06' E 003°44'0 0.0
2015-Jan-27 00:31N 51°06' E 003°44'0 0.0
2015-Jan-26 23:31N 51°06' E 003°44'0 0.0
2015-Jan-26 22:31N 51°06' E 003°44'0 0.0
2015-Jan-26 21:31N 51°06' E 003°44'0 0.0
2015-Jan-26 20:25N 51°06' E 003°44'0 0.0
2015-Jan-26 19:31N 51°06' E 003°44'0 0.0
2015-Jan-26 18:31N 51°06' E 003°44'0 0.0
2015-Jan-26 17:31N 51°06' E 003°44'0 0.0
2015-Jan-26 16:31N 51°06' E 003°44'0 0.0
2015-Jan-26 15:31N 51°06' E 003°44'0 0.0
2015-Jan-26 14:28N 51°06' E 003°44'0 0.0
2015-Jan-26 13:31N 51°06' E 003°44'0 0.0
2015-Jan-26 12:31N 51°06' E 003°44'0 0.0
2015-Jan-26 11:31N 51°06' E 003°44'0 0.0
2015-Jan-26 10:31N 51°06' E 003°44'0 0.0
2015-Jan-26 09:31N 51°06' E 003°44'0 0.0
2015-Jan-26 08:31N 51°06' E 003°44'0 0.0
2015-Jan-26 07:31N 51°06' E 003°44'0 0.0
2015-Jan-26 06:31N 51°06' E 003°44'0 0.0
2015-Jan-26 05:31N 51°06' E 003°44'0 0.0
2015-Jan-26 04:31N 51°06' E 003°44'0 0.0
2015-Jan-26 03:31N 51°06' E 003°44'0 0.0
2015-Jan-26 02:31N 51°06' E 003°44'0 0.0
2015-Jan-26 01:31N 51°06' E 003°44'0 0.0
2015-Jan-26 00:31N 51°06' E 003°44'0 0.0
2015-Jan-25 23:28N 51°06' E 003°44'0 0.0
2015-Jan-25 22:31N 51°06' E 003°44'0 0.0
2015-Jan-25 21:28N 51°06' E 003°44'0 0.0
2015-Jan-25 20:31N 51°06' E 003°44'0 0.0
2015-Jan-25 19:31N 51°06' E 003°44'0 0.0
2015-Jan-25 18:31N 51°06' E 003°44'0 0.0
2015-Jan-25 17:31N 51°06' E 003°44'0 0.0
2015-Jan-25 16:31N 51°06' E 003°44'0 0.0
2015-Jan-25 15:31N 51°06' E 003°44'0 0.0
2015-Jan-25 14:31N 51°06' E 003°44'0 0.0
2015-Jan-25 13:31N 51°06' E 003°44'0 0.0
2015-Jan-25 12:31N 51°06' E 003°44'0 0.0
2015-Jan-25 11:31N 51°06' E 003°44'0 0.0
2015-Jan-25 10:31N 51°06' E 003°44'0 0.0
2015-Jan-25 09:31N 51°06' E 003°44'0 0.0
2015-Jan-25 08:31N 51°06' E 003°44'0 0.0
2015-Jan-25 07:31N 51°06' E 003°44'0 0.0
2015-Jan-25 06:31N 51°06' E 003°44'0 0.0
2015-Jan-25 05:31N 51°06' E 003°44'0 0.0
2015-Jan-25 04:31N 51°06' E 003°44'0 0.0
2015-Jan-25 03:31N 51°06' E 003°44'0 0.0
2015-Jan-25 02:31N 51°06' E 003°44'0 0.0
2015-Jan-25 01:31N 51°06' E 003°44'0 0.0
2015-Jan-25 00:31N 51°06' E 003°44'0 0.0
2015-Jan-24 23:31N 51°06' E 003°44'0 0.0
2015-Jan-24 22:31N 51°06' E 003°44'0 0.0
2015-Jan-24 21:31N 51°06' E 003°44'0 0.0
2015-Jan-24 20:31N 51°06' E 003°44'0 0.0
2015-Jan-24 19:31N 51°06' E 003°44'0 0.0
2015-Jan-24 18:31N 51°06' E 003°44'0 0.0
2015-Jan-24 17:31N 51°06' E 003°44'0 0.0
2015-Jan-24 16:31N 51°06' E 003°44'0 0.0
2015-Jan-24 15:31N 51°06' E 003°44'0 0.0
2015-Jan-24 14:28N 51°06' E 003°44'0 0.0
2015-Jan-24 13:31N 51°06' E 003°44'0 0.0
2015-Jan-24 12:31N 51°06' E 003°44'0 0.0
2015-Jan-24 11:31N 51°06' E 003°44'0 0.0
2015-Jan-24 10:31N 51°06' E 003°44'0 0.2
2015-Jan-24 09:33N 51°06' E 003°45'8 8.1
2015-Jan-24 08:33N 51°14' E 003°49'6 5.6
2015-Jan-24 07:34N 51°20' E 003°49'1 1.1
2015-Jan-24 06:33N 51°21' E 003°48'7 7.1
2015-Jan-24 05:33N 51°26' E 003°41'7 7.1
2015-Jan-24 04:33N 51°25' E 003°29'9 8.5
2015-Jan-24 03:26N 51°25' E 003°14'1113.1
2015-Jan-24 02:34N 51°23' E 002°56'1212.2
2015-Jan-24 01:33N 51°22' E 002°37'3 2.9
2015-Jan-24 00:31N 51°20' E 002°33'0 0.2
2015-Jan-23 23:31N 51°20' E 002°32'0 0.0
2015-Jan-23 22:31N 51°20' E 002°32'0 0.1
2015-Jan-23 21:25N 51°20' E 002°32'0 0.1
2015-Jan-23 20:31N 51°20' E 002°33'0 0.1
2015-Jan-23 19:31N 51°20' E 002°33'0 0.0
2015-Jan-23 18:31N 51°20' E 002°33'0 0.0
2015-Jan-23 17:28N 51°20' E 002°33'0 0.0
2015-Jan-23 16:31N 51°20' E 002°33'0 0.0
2015-Jan-23 15:31N 51°20' E 002°33'0 0.0
2015-Jan-23 14:31N 51°20' E 002°33'0 0.0
2015-Jan-23 13:31N 51°20' E 002°33'0 0.1
2015-Jan-23 12:31N 51°20' E 002°33'0 0.1
2015-Jan-23 11:31N 51°20' E 002°32'0 0.0
2015-Jan-23 10:31N 51°20' E 002°32'0 0.1
2015-Jan-23 09:31N 51°20' E 002°32'0 0.0
2015-Jan-23 08:31N 51°20' E 002°32'0 0.0
2015-Jan-23 07:31N 51°20' E 002°32'0 0.0
2015-Jan-23 06:31N 51°20' E 002°32'0 0.1
2015-Jan-23 05:28N 51°20' E 002°33'0 0.0
2015-Jan-23 04:31N 51°20' E 002°33'0 0.0
2015-Jan-23 03:25N 51°20' E 002°33'0 0.0
2015-Jan-23 02:31N 51°20' E 002°33'0 0.0
2015-Jan-23 01:31N 51°20' E 002°33'0 0.2
2015-Jan-23 00:31N 51°20' E 002°32'0 0.0
2015-Jan-22 23:31N 51°20' E 002°32'0 0.0
2015-Jan-22 22:28N 51°20' E 002°32'0 0.0
2015-Jan-22 21:28N 51°20' E 002°32'0 0.0
2015-Jan-22 20:31N 51°20' E 002°32'0 0.0
2015-Jan-22 19:33N 51°20' E 002°32'0 0.0
2015-Jan-22 18:33N 51°20' E 002°32'0 0.0
2015-Jan-22 17:33N 51°20' E 002°32'0 0.2
2015-Jan-22 16:33N 51°20' E 002°33'0 0.0
2015-Jan-22 15:32N 51°20' E 002°33'0 0.0
2015-Jan-22 14:32N 51°20' E 002°33'0 0.0
2015-Jan-22 13:33N 51°20' E 002°33'0 0.0
2015-Jan-22 12:33N 51°20' E 002°33'0 0.2
2015-Jan-22 11:33N 51°20' E 002°32'0 0.0
2015-Jan-22 10:33N 51°20' E 002°32'0 0.0
2015-Jan-22 09:33N 51°20' E 002°32'0 0.0
2015-Jan-22 08:33N 51°20' E 002°32'0 0.1
2015-Jan-22 07:30N 51°20' E 002°32'0 0.1
2015-Jan-22 06:29N 51°20' E 002°32'0 0.0
2015-Jan-22 05:32N 51°20' E 002°32'0 0.1
2015-Jan-22 04:24N 51°20' E 002°33'0 0.0
2015-Jan-22 03:32N 51°20' E 002°33'0 0.0
2015-Jan-22 02:29N 51°20' E 002°33'0 0.0
2015-Jan-22 01:33N 51°20' E 002°33'0 0.0
2015-Jan-22 00:32N 51°20' E 002°33'0 0.2
2015-Jan-21 23:28N 51°20' E 002°32'0 0.0
2015-Jan-21 22:50N 51°20' E 002°32'0 0.1
2015-Jan-21 22:46N 51°20' E 002°32'0 0.0
2015-Jan-21 22:33N 51°20' E 002°32'0 0.0
2015-Jan-21 21:32N 51°20' E 002°32'0 0.0
2015-Jan-21 20:33N 51°20' E 002°32'0 0.0
2015-Jan-21 19:33N 51°20' E 002°32'0 0.0
2015-Jan-21 18:25N 51°20' E 002°32'0 0.0
2015-Jan-21 17:31N 51°20' E 002°32'0 0.0
2015-Jan-21 16:33N 51°20' E 002°32'0 0.1
2015-Jan-21 15:33N 51°20' E 002°33'0 0.0
2015-Jan-21 14:33N 51°20' E 002°33'0 0.0
2015-Jan-21 13:33N 51°20' E 002°33'0 0.0
2015-Jan-21 12:33N 51°20' E 002°33'0 0.1
2015-Jan-21 11:33N 51°20' E 002°33'0 0.1
2015-Jan-21 10:32N 51°20' E 002°32'0 0.1
2015-Jan-21 09:33N 51°20' E 002°32'0 0.0
2015-Jan-21 08:27N 51°20' E 002°32'0 0.0
2015-Jan-21 07:32N 51°20' E 002°32'0 0.1
2015-Jan-21 06:26N 51°20' E 002°32'0 0.0
2015-Jan-21 05:32N 51°20' E 002°32'0 0.1
2015-Jan-21 04:33N 51°20' E 002°32'0 0.0
2015-Jan-21 03:33N 51°20' E 002°33'0 0.0
2015-Jan-21 02:30N 51°20' E 002°33'0 0.0
2015-Jan-21 01:31N 51°20' E 002°33'0 0.0
2015-Jan-21 00:33N 51°20' E 002°33'0 0.0
2015-Jan-20 23:32N 51°20' E 002°33'0 0.0
2015-Jan-20 22:33N 51°20' E 002°33'0 0.2
2015-Jan-20 21:31N 51°20' E 002°32'0 0.0
2015-Jan-20 20:32N 51°20' E 002°32'0 0.0
2015-Jan-20 19:32N 51°20' E 002°32'0 0.1
2015-Jan-20 18:31N 51°20' E 002°32'0 0.1
2015-Jan-20 17:27N 51°20' E 002°32'2 2.6
2015-Jan-20 16:33N 51°22' E 002°31'1110.3
2015-Jan-20 15:27N 51°17' E 002°15'9 9.8
2015-Jan-20 14:33N 51°13' E 002°03'1110.6
2015-Jan-20 13:33N 51°07' E 001°48'188 8.9
2015-Jan-19 16:30N 50°13' W 002°55'9 9.0
2015-Jan-19 15:32N 50°11' W 003°08'97 6.9
2015-Jan-19 01:30N 50°32' W 005°37'1011.0
2015-Jan-19 00:33N 50°39' W 005°24'9012.8
2015-Jan-18 17:33N 51°21' W 003°18'1111.2
2015-Jan-18 16:33N 51°28' W 003°04'6 5.6
2015-Jan-18 15:26N 51°33' W 002°59'0 0.1
2015-Jan-18 14:32N 51°33' W 002°59'0 0.0
2015-Jan-18 13:32N 51°33' W 002°59'0 0.0
2015-Jan-18 12:32N 51°33' W 002°59'0 0.0
2015-Jan-18 11:32N 51°33' W 002°59'0 0.0
2015-Jan-18 10:32N 51°33' W 002°59'0 0.0
2015-Jan-18 09:32N 51°33' W 002°59'0 0.0
2015-Jan-18 08:32N 51°33' W 002°59'0 0.0
2015-Jan-18 07:32N 51°33' W 002°59'0 0.0
2015-Jan-18 06:32N 51°33' W 002°59'0 0.0
2015-Jan-18 05:32N 51°33' W 002°59'0 0.0
2015-Jan-18 04:32N 51°33' W 002°59'0 0.0
2015-Jan-18 03:32N 51°33' W 002°59'0 0.0
2015-Jan-18 02:26N 51°33' W 002°59'0 0.0
2015-Jan-18 01:32N 51°33' W 002°59'0 0.0
2015-Jan-18 00:32N 51°33' W 002°59'0 0.0
2015-Jan-17 23:32N 51°33' W 002°59'0 0.0
2015-Jan-17 22:32N 51°33' W 002°59'0 0.0
2015-Jan-17 21:32N 51°33' W 002°59'0 0.0
2015-Jan-17 20:32N 51°33' W 002°59'  

Dump ship's entire track history